KBIH/BIH METAR and TAF weather

Enter ICAO airport designator
Station Type Date Time Source
KBIH METAR 2019/07/20 04:56 UTC NOAA

KBIH 200456Z AUTO 14016KT 10SM CLR 28/04 A2988 RMK AO2 SLP057 T02780039


Station Type Date Time Source
KBIH Decoded METAR 2019/07/20 04:56 UTC NOAA

BISHOP AIRPORT, CA, United States (KBIH) 37-22N 118-22W 1253M
Jul 20, 2019 - 12:56 AM EDT / 2019.07.20 0456 UTC
Wind: from the SE (140 degrees) at 18 MPH (16 KT):0
Visibility: 10 mile(s):0
Sky conditions: clear
Temperature: 82.0 F (27.8 C)
Dew Point: 39.0 F (3.9 C)
Relative Humidity: 21%
Pressure (altimeter): 29.88 in. Hg (1011 hPa)
ob: KBIH 200456Z AUTO 14016KT 10SM CLR 28/04 A2988 RMK AO2 SLP057 T02780039
cycle: 5

Station Type Date Time Source
KBIH TAF 2019/07/20 06:27 UTC NOAA

TAF KBIH 200524Z 2006/2106 15010KT P6SM FEW150
FM200900 VRB05KT P6SM SKC
FM201800 17010G18KT P6SM SKC
FM210400 15010KT P6SM SKC

Example: see airport list